sensor_id;sensor_type;location;lat;lon;timestamp;temperature;humidity
52321;DHT22;38261;54.090;13.382;2022-12-18T00:02:39;-7.40;99.90
52321;DHT22;38261;54.090;13.382;2022-12-18T00:04:04;-7.40;99.90
52321;DHT22;38261;54.090;13.382;2022-12-18T00:05:27;-7.50;99.90
52321;DHT22;38261;54.090;13.382;2022-12-18T00:06:49;-7.50;99.90
52321;DHT22;38261;54.090;13.382;2022-12-18T00:08:11;-7.50;99.90
52321;DHT22;38261;54.090;13.382;2022-12-18T00:09:33;-7.50;99.90
52321;DHT22;38261;54.090;13.382;2022-12-18T00:11:05;-7.50;99.90
52321;DHT22;38261;54.090;13.382;2022-12-18T00:12:28;-7.60;99.90
52321;DHT22;38261;54.090;13.382;2022-12-18T00:13:51;-7.60;99.90
52321;DHT22;38261;54.090;13.382;2022-12-18T00:15:13;-7.60;99.90
52321;DHT22;38261;54.090;13.382;2022-12-18T00:16:35;-7.60;99.90
52321;DHT22;38261;54.090;13.382;2022-12-18T00:17:58;-7.70;99.90
52321;DHT22;38261;54.090;13.382;2022-12-18T00:19:20;-7.70;99.90
52321;DHT22;38261;54.090;13.382;2022-12-18T00:20:43;-7.70;99.90
52321;DHT22;38261;54.090;13.382;2022-12-18T00:22:05;-7.70;99.90
52321;DHT22;38261;54.090;13.382;2022-12-18T00:23:28;-7.70;99.90
52321;DHT22;38261;54.090;13.382;2022-12-18T00:24:51;-7.70;99.90
52321;DHT22;38261;54.090;13.382;2022-12-18T00:26:18;-7.80;99.90
52321;DHT22;38261;54.090;13.382;2022-12-18T00:27:40;-7.80;99.90
52321;DHT22;38261;54.090;13.382;2022-12-18T00:29:10;-7.80;99.90
52321;DHT22;38261;54.090;13.382;2022-12-18T00:30:32;-7.80;99.90
52321;DHT22;38261;54.090;13.382;2022-12-18T00:31:54;-7.80;99.90
52321;DHT22;38261;54.090;13.382;2022-12-18T00:33:17;-7.80;99.90
52321;DHT22;38261;54.090;13.382;2022-12-18T00:34:39;-7.80;99.90
52321;DHT22;38261;54.090;13.382;2022-12-18T00:36:03;-7.80;99.90
52321;DHT22;38261;54.090;13.382;2022-12-18T00:37:26;-7.90;99.90
52321;DHT22;38261;54.090;13.382;2022-12-18T00:38:48;-7.90;99.90
52321;DHT22;38261;54.090;13.382;2022-12-18T00:40:11;-7.90;99.90
52321;DHT22;38261;54.090;13.382;2022-12-18T00:41:33;-7.90;99.90
52321;DHT22;38261;54.090;13.382;2022-12-18T00:43:14;-7.90;99.90
52321;DHT22;38261;54.090;13.382;2022-12-18T00:44:36;-7.90;99.90
52321;DHT22;38261;54.090;13.382;2022-12-18T00:45:58;-7.90;99.90
52321;DHT22;38261;54.090;13.382;2022-12-18T00:47:21;-7.90;99.90
52321;DHT22;38261;54.090;13.382;2022-12-18T00:48:43;-7.90;99.90
52321;DHT22;38261;54.090;13.382;2022-12-18T00:50:06;-7.90;99.90
52321;DHT22;38261;54.090;13.382;2022-12-18T00:51:28;-7.90;99.90
52321;DHT22;38261;54.090;13.382;2022-12-18T00:52:51;-7.90;99.90
52321;DHT22;38261;54.090;13.382;2022-12-18T00:54:14;-7.90;99.90
52321;DHT22;38261;54.090;13.382;2022-12-18T00:55:40;-7.90;99.90
52321;DHT22;38261;54.090;13.382;2022-12-18T00:57:02;-7.90;99.90
52321;DHT22;38261;54.090;13.382;2022-12-18T00:58:24;-7.80;99.90
52321;DHT22;38261;54.090;13.382;2022-12-18T00:59:48;-7.80;99.90
52321;DHT22;38261;54.090;13.382;2022-12-18T01:01:10;-7.80;99.90
52321;DHT22;38261;54.090;13.382;2022-12-18T01:02:32;-7.80;99.90
52321;DHT22;38261;54.090;13.382;2022-12-18T01:03:59;-7.80;99.90
52321;DHT22;38261;54.090;13.382;2022-12-18T01:05:21;-7.80;99.90
52321;DHT22;38261;54.090;13.382;2022-12-18T01:06:43;-7.80;99.90
52321;DHT22;38261;54.090;13.382;2022-12-18T01:08:05;-7.80;99.90
52321;DHT22;38261;54.090;13.382;2022-12-18T01:09:27;-7.70;99.90
52321;DHT22;38261;54.090;13.382;2022-12-18T01:10:50;-7.70;99.90
52321;DHT22;38261;54.090;13.382;2022-12-18T01:12:12;-7.70;99.90
52321;DHT22;38261;54.090;13.382;2022-12-18T01:13:34;-7.70;99.90
52321;DHT22;38261;54.090;13.382;2022-12-18T01:14:57;-7.70;99.90
52321;DHT22;38261;54.090;13.382;2022-12-18T01:16:20;-7.70;99.90
52321;DHT22;38261;54.090;13.382;2022-12-18T01:17:43;-7.70;99.90
52321;DHT22;38261;54.090;13.382;2022-12-18T01:19:05;-7.70;99.90
52321;DHT22;38261;54.090;13.382;2022-12-18T01:20:27;-7.70;99.90
52321;DHT22;38261;54.090;13.382;2022-12-18T01:21:49;-7.70;99.90
52321;DHT22;38261;54.090;13.382;2022-12-18T01:23:11;-7.60;99.90
52321;DHT22;38261;54.090;13.382;2022-12-18T01:24:34;-7.70;99.90
52321;DHT22;38261;54.090;13.382;2022-12-18T01:25:56;-7.70;99.90
52321;DHT22;38261;54.090;13.382;2022-12-18T01:27:18;-7.60;99.90
52321;DHT22;38261;54.090;13.382;2022-12-18T01:28:40;-7.70;99.90
52321;DHT22;38261;54.090;13.382;2022-12-18T01:30:03;-7.70;99.90
52321;DHT22;38261;54.090;13.382;2022-12-18T01:31:28;-7.60;99.90
52321;DHT22;38261;54.090;13.382;2022-12-18T01:32:51;-7.60;99.90
52321;DHT22;38261;54.090;13.382;2022-12-18T01:34:13;-7.60;99.90
52321;DHT22;38261;54.090;13.382;2022-12-18T01:35:45;-7.60;99.90
52321;DHT22;38261;54.090;13.382;2022-12-18T01:37:07;-7.60;99.90
52321;DHT22;38261;54.090;13.382;2022-12-18T01:38:30;-7.60;99.90
52321;DHT22;38261;54.090;13.382;2022-12-18T01:39:52;-7.50;99.90
52321;DHT22;38261;54.090;13.382;2022-12-18T01:41:18;-7.50;99.90
52321;DHT22;38261;54.090;13.382;2022-12-18T01:42:40;-7.50;99.90
52321;DHT22;38261;54.090;13.382;2022-12-18T01:46:03;-7.50;99.90
52321;DHT22;38261;54.090;13.382;2022-12-18T01:47:36;-7.50;99.90
52321;DHT22;38261;54.090;13.382;2022-12-18T01:49:01;-7.40;99.90
52321;DHT22;38261;54.090;13.382;2022-12-18T01:50:33;-7.40;99.90
52321;DHT22;38261;54.090;13.382;2022-12-18T01:51:56;-7.40;99.90
52321;DHT22;38261;54.090;13.382;2022-12-18T01:53:23;-7.40;99.90
52321;DHT22;38261;54.090;13.382;2022-12-18T01:54:47;-7.40;99.90
52321;DHT22;38261;54.090;13.382;2022-12-18T01:56:14;-7.40;99.90
52321;DHT22;38261;54.090;13.382;2022-12-18T01:57:38;-7.40;99.90
52321;DHT22;38261;54.090;13.382;2022-12-18T01:59:06;-7.40;99.90
52321;DHT22;38261;54.090;13.382;2022-12-18T02:00:30;-7.40;99.90
52321;DHT22;38261;54.090;13.382;2022-12-18T02:01:52;-7.40;99.90
52321;DHT22;38261;54.090;13.382;2022-12-18T02:03:14;-7.40;99.90
52321;DHT22;38261;54.090;13.382;2022-12-18T02:04:36;-7.40;99.90
52321;DHT22;38261;54.090;13.382;2022-12-18T02:10:53;-7.40;99.90
52321;DHT22;38261;54.090;13.382;2022-12-18T02:12:21;-7.40;99.90
52321;DHT22;38261;54.090;13.382;2022-12-18T02:18:25;-7.30;99.90
52321;DHT22;38261;54.090;13.382;2022-12-18T02:24:42;-7.20;99.90
52321;DHT22;38261;54.090;13.382;2022-12-18T02:27:49;-7.20;99.90
52321;DHT22;38261;54.090;13.382;2022-12-18T02:29:41;-7.20;99.90
52321;DHT22;38261;54.090;13.382;2022-12-18T02:31:09;-7.20;99.90
52321;DHT22;38261;54.090;13.382;2022-12-18T02:32:37;-7.20;99.90
52321;DHT22;38261;54.090;13.382;2022-12-18T02:34:03;-7.20;99.90
52321;DHT22;38261;54.090;13.382;2022-12-18T02:35:29;-7.20;99.90
52321;DHT22;38261;54.090;13.382;2022-12-18T02:36:53;-7.20;99.90
52321;DHT22;38261;54.090;13.382;2022-12-18T02:38:16;-7.20;99.90
52321;DHT22;38261;54.090;13.382;2022-12-18T02:39:42;-7.30;99.90
52321;DHT22;38261;54.090;13.382;2022-12-18T02:41:05;-7.30;99.90
52321;DHT22;38261;54.090;13.382;2022-12-18T02:42:28;-7.30;99.90
52321;DHT22;38261;54.090;13.382;2022-12-18T02:43:56;-7.30;99.90
52321;DHT22;38261;54.090;13.382;2022-12-18T02:45:19;-7.30;99.90
52321;DHT22;38261;54.090;13.382;2022-12-18T02:46:43;-7.30;99.90
52321;DHT22;38261;54.090;13.382;2022-12-18T02:48:08;-7.30;99.90
52321;DHT22;38261;54.090;13.382;2022-12-18T02:53:28;-7.30;99.90
52321;DHT22;38261;54.090;13.382;2022-12-18T02:56:31;-7.30;99.90
52321;DHT22;38261;54.090;13.382;2022-12-18T02:58:13;-7.30;99.90
52321;DHT22;38261;54.090;13.382;2022-12-18T02:59:45;-7.30;99.90
52321;DHT22;38261;54.090;13.382;2022-12-18T03:01:19;-7.30;99.90
52321;DHT22;38261;54.090;13.382;2022-12-18T03:02:55;-7.30;99.90
52321;DHT22;38261;54.090;13.382;2022-12-18T03:04:25;-7.30;99.90
52321;DHT22;38261;54.090;13.382;2022-12-18T03:06:01;-7.30;99.90
52321;DHT22;38261;54.090;13.382;2022-12-18T03:07:38;-7.30;99.90
52321;DHT22;38261;54.090;13.382;2022-12-18T03:09:10;-7.30;99.90
52321;DHT22;38261;54.090;13.382;2022-12-18T03:10:37;-7.30;99.90
52321;DHT22;38261;54.090;13.382;2022-12-18T03:12:18;-7.30;99.90
52321;DHT22;38261;54.090;13.382;2022-12-18T03:13:56;-7.30;99.90
52321;DHT22;38261;54.090;13.382;2022-12-18T03:16:42;-7.40;99.90
52321;DHT22;38261;54.090;13.382;2022-12-18T03:18:27;-7.40;99.90
52321;DHT22;38261;54.090;13.382;2022-12-18T03:19:53;-7.40;99.90
52321;DHT22;38261;54.090;13.382;2022-12-18T03:21:21;-7.40;99.90
52321;DHT22;38261;54.090;13.382;2022-12-18T03:22:46;-7.40;99.90
52321;DHT22;38261;54.090;13.382;2022-12-18T03:24:09;-7.40;99.90
52321;DHT22;38261;54.090;13.382;2022-12-18T03:25:34;-7.40;99.90
52321;DHT22;38261;54.090;13.382;2022-12-18T03:27:00;-7.40;99.90
52321;DHT22;38261;54.090;13.382;2022-12-18T03:28:23;-7.40;99.90
52321;DHT22;38261;54.090;13.382;2022-12-18T03:29:50;-7.40;99.90
52321;DHT22;38261;54.090;13.382;2022-12-18T03:31:14;-7.40;99.90
52321;DHT22;38261;54.090;13.382;2022-12-18T03:32:48;-7.40;99.90
52321;DHT22;38261;54.090;13.382;2022-12-18T03:34:19;-7.40;99.90
52321;DHT22;38261;54.090;13.382;2022-12-18T03:35:44;-7.40;99.90
52321;DHT22;38261;54.090;13.382;2022-12-18T03:37:06;-7.50;99.90
52321;DHT22;38261;54.090;13.382;2022-12-18T03:38:28;-7.50;99.90
52321;DHT22;38261;54.090;13.382;2022-12-18T03:39:50;-7.50;99.90
52321;DHT22;38261;54.090;13.382;2022-12-18T03:41:38;-7.50;99.90
52321;DHT22;38261;54.090;13.382;2022-12-18T03:43:19;-7.50;99.90
52321;DHT22;38261;54.090;13.382;2022-12-18T03:48:31;-7.60;99.90
52321;DHT22;38261;54.090;13.382;2022-12-18T03:50:27;-7.60;99.90
52321;DHT22;38261;54.090;13.382;2022-12-18T03:52:14;-7.60;99.90
52321;DHT22;38261;54.090;13.382;2022-12-18T03:55:05;-7.70;99.90
52321;DHT22;38261;54.090;13.382;2022-12-18T03:56:32;-7.70;99.90
52321;DHT22;38261;54.090;13.382;2022-12-18T03:57:55;-7.80;99.90
52321;DHT22;38261;54.090;13.382;2022-12-18T03:59:19;-7.80;99.90
52321;DHT22;38261;54.090;13.382;2022-12-18T04:00:41;-7.80;99.90
52321;DHT22;38261;54.090;13.382;2022-12-18T04:02:05;-7.80;99.90
52321;DHT22;38261;54.090;13.382;2022-12-18T04:03:29;-7.80;99.90
52321;DHT22;38261;54.090;13.382;2022-12-18T04:04:58;-7.80;99.90
52321;DHT22;38261;54.090;13.382;2022-12-18T04:06:21;-7.80;99.90
52321;DHT22;38261;54.090;13.382;2022-12-18T04:07:47;-7.90;99.90
52321;DHT22;38261;54.090;13.382;2022-12-18T04:09:09;-7.90;99.90
52321;DHT22;38261;54.090;13.382;2022-12-18T04:10:32;-7.90;99.90
52321;DHT22;38261;54.090;13.382;2022-12-18T04:11:54;-7.90;99.90
52321;DHT22;38261;54.090;13.382;2022-12-18T04:13:28;-7.90;99.90
52321;DHT22;38261;54.090;13.382;2022-12-18T04:14:52;-8.00;99.90
52321;DHT22;38261;54.090;13.382;2022-12-18T04:16:14;-8.00;99.90
52321;DHT22;38261;54.090;13.382;2022-12-18T04:17:36;-8.00;99.90
52321;DHT22;38261;54.090;13.382;2022-12-18T04:18:59;-8.00;99.90
52321;DHT22;38261;54.090;13.382;2022-12-18T04:20:21;-8.00;99.90
52321;DHT22;38261;54.090;13.382;2022-12-18T04:21:43;-8.00;99.90
52321;DHT22;38261;54.090;13.382;2022-12-18T04:23:05;-8.00;99.90
52321;DHT22;38261;54.090;13.382;2022-12-18T04:24:27;-8.00;99.90
52321;DHT22;38261;54.090;13.382;2022-12-18T04:25:49;-8.00;99.90
52321;DHT22;38261;54.090;13.382;2022-12-18T04:27:11;-8.00;99.90
52321;DHT22;38261;54.090;13.382;2022-12-18T04:28:34;-8.00;99.90
52321;DHT22;38261;54.090;13.382;2022-12-18T04:29:56;-8.00;99.90
52321;DHT22;38261;54.090;13.382;2022-12-18T04:31:18;-8.00;99.90
52321;DHT22;38261;54.090;13.382;2022-12-18T04:32:40;-8.00;99.90
52321;DHT22;38261;54.090;13.382;2022-12-18T04:34:08;-8.00;99.90
52321;DHT22;38261;54.090;13.382;2022-12-18T04:35:30;-8.00;99.90
52321;DHT22;38261;54.090;13.382;2022-12-18T04:36:53;-8.00;99.90
52321;DHT22;38261;54.090;13.382;2022-12-18T04:38:15;-8.00;99.90
52321;DHT22;38261;54.090;13.382;2022-12-18T04:39:37;-8.00;99.90
52321;DHT22;38261;54.090;13.382;2022-12-18T04:40:59;-8.00;99.90
52321;DHT22;38261;54.090;13.382;2022-12-18T04:42:21;-8.00;99.90
52321;DHT22;38261;54.090;13.382;2022-12-18T04:43:43;-8.00;99.90
52321;DHT22;38261;54.090;13.382;2022-12-18T04:45:06;-8.00;99.90
52321;DHT22;38261;54.090;13.382;2022-12-18T04:46:28;-8.00;99.90
52321;DHT22;38261;54.090;13.382;2022-12-18T04:47:51;-8.00;99.90
52321;DHT22;38261;54.090;13.382;2022-12-18T04:49:13;-8.00;99.90
52321;DHT22;38261;54.090;13.382;2022-12-18T04:50:35;-8.00;99.90
52321;DHT22;38261;54.090;13.382;2022-12-18T04:51:57;-8.00;99.90
52321;DHT22;38261;54.090;13.382;2022-12-18T04:53:19;-8.00;99.90
52321;DHT22;38261;54.090;13.382;2022-12-18T04:54:41;-8.10;99.90
52321;DHT22;38261;54.090;13.382;2022-12-18T04:56:14;-8.10;99.90
52321;DHT22;38261;54.090;13.382;2022-12-18T04:57:36;-8.10;99.90
52321;DHT22;38261;54.090;13.382;2022-12-18T04:58:58;-8.10;99.90
52321;DHT22;38261;54.090;13.382;2022-12-18T05:00:21;-8.10;99.90
52321;DHT22;38261;54.090;13.382;2022-12-18T05:01:44;-8.10;99.90
52321;DHT22;38261;54.090;13.382;2022-12-18T05:03:06;-8.10;99.90
52321;DHT22;38261;54.090;13.382;2022-12-18T05:04:28;-8.10;99.90
52321;DHT22;38261;54.090;13.382;2022-12-18T05:05:51;-8.10;99.90
52321;DHT22;38261;54.090;13.382;2022-12-18T05:07:13;-8.10;99.90
52321;DHT22;38261;54.090;13.382;2022-12-18T05:08:35;-8.20;99.90
52321;DHT22;38261;54.090;13.382;2022-12-18T05:09:58;-8.20;99.90
52321;DHT22;38261;54.090;13.382;2022-12-18T05:11:20;-8.20;99.90
52321;DHT22;38261;54.090;13.382;2022-12-18T05:12:42;-8.20;99.90
52321;DHT22;38261;54.090;13.382;2022-12-18T05:14:21;-8.20;99.90
52321;DHT22;38261;54.090;13.382;2022-12-18T05:15:51;-8.20;99.90
52321;DHT22;38261;54.090;13.382;2022-12-18T05:17:14;-8.20;99.90
52321;DHT22;38261;54.090;13.382;2022-12-18T05:18:36;-8.20;99.90
52321;DHT22;38261;54.090;13.382;2022-12-18T05:19:58;-8.20;99.90
52321;DHT22;38261;54.090;13.382;2022-12-18T05:21:20;-8.20;99.90
52321;DHT22;38261;54.090;13.382;2022-12-18T05:22:42;-8.20;99.90
52321;DHT22;38261;54.090;13.382;2022-12-18T05:24:05;-8.20;99.90
52321;DHT22;38261;54.090;13.382;2022-12-18T05:25:27;-8.20;99.90
52321;DHT22;38261;54.090;13.382;2022-12-18T05:26:50;-8.20;99.90
52321;DHT22;38261;54.090;13.382;2022-12-18T05:28:12;-8.20;99.90
52321;DHT22;38261;54.090;13.382;2022-12-18T05:29:34;-8.20;99.90
52321;DHT22;38261;54.090;13.382;2022-12-18T05:30:58;-8.20;99.90
52321;DHT22;38261;54.090;13.382;2022-12-18T05:32:20;-8.20;99.90
52321;DHT22;38261;54.090;13.382;2022-12-18T05:33:42;-8.20;99.90
52321;DHT22;38261;54.090;13.382;2022-12-18T05:35:06;-8.20;99.90
52321;DHT22;38261;54.090;13.382;2022-12-18T05:36:29;-8.20;99.90
52321;DHT22;38261;54.090;13.382;2022-12-18T05:37:51;-8.20;99.90
52321;DHT22;38261;54.090;13.382;2022-12-18T05:39:13;-8.30;99.90
52321;DHT22;38261;54.090;13.382;2022-12-18T05:40:35;-8.20;99.90
52321;DHT22;38261;54.090;13.382;2022-12-18T05:41:58;-8.20;99.90
52321;DHT22;38261;54.090;13.382;2022-12-18T05:43:22;-8.20;99.90
52321;DHT22;38261;54.090;13.382;2022-12-18T05:44:44;-8.20;99.90
52321;DHT22;38261;54.090;13.382;2022-12-18T05:46:08;-8.20;99.90
52321;DHT22;38261;54.090;13.382;2022-12-18T05:47:31;-8.20;99.90
52321;DHT22;38261;54.090;13.382;2022-12-18T05:48:53;-8.20;99.90
52321;DHT22;38261;54.090;13.382;2022-12-18T05:51:30;-8.20;99.90
52321;DHT22;38261;54.090;13.382;2022-12-18T05:52:53;-8.20;99.90
52321;DHT22;38261;54.090;13.382;2022-12-18T05:54:15;-8.20;99.90
52321;DHT22;38261;54.090;13.382;2022-12-18T05:55:39;-8.20;99.90
52321;DHT22;38261;54.090;13.382;2022-12-18T05:57:01;-8.20;99.90
52321;DHT22;38261;54.090;13.382;2022-12-18T05:58:23;-8.20;99.90
52321;DHT22;38261;54.090;13.382;2022-12-18T05:59:45;-8.20;99.90
52321;DHT22;38261;54.090;13.382;2022-12-18T06:02:32;-8.20;99.90
52321;DHT22;38261;54.090;13.382;2022-12-18T06:03:55;-8.20;99.90
52321;DHT22;38261;54.090;13.382;2022-12-18T06:05:17;-8.20;99.90
52321;DHT22;38261;54.090;13.382;2022-12-18T06:06:39;-8.20;99.90
52321;DHT22;38261;54.090;13.382;2022-12-18T06:08:02;-8.20;99.90
52321;DHT22;38261;54.090;13.382;2022-12-18T06:09:24;-8.20;99.90
52321;DHT22;38261;54.090;13.382;2022-12-18T06:10:50;-8.20;99.90
52321;DHT22;38261;54.090;13.382;2022-12-18T06:12:13;-8.20;99.90
52321;DHT22;38261;54.090;13.382;2022-12-18T06:13:36;-8.20;99.90
52321;DHT22;38261;54.090;13.382;2022-12-18T06:14:59;-8.20;99.90
52321;DHT22;38261;54.090;13.382;2022-12-18T06:16:22;-8.20;99.90
52321;DHT22;38261;54.090;13.382;2022-12-18T06:17:44;-8.20;99.90
52321;DHT22;38261;54.090;13.382;2022-12-18T06:19:07;-8.20;99.90
52321;DHT22;38261;54.090;13.382;2022-12-18T06:20:29;-8.20;99.90
52321;DHT22;38261;54.090;13.382;2022-12-18T06:21:54;-8.20;99.90
52321;DHT22;38261;54.090;13.382;2022-12-18T06:23:19;-8.20;99.90
52321;DHT22;38261;54.090;13.382;2022-12-18T06:24:41;-8.20;99.90
52321;DHT22;38261;54.090;13.382;2022-12-18T06:26:09;-8.20;99.90
52321;DHT22;38261;54.090;13.382;2022-12-18T06:27:31;-8.20;99.90
52321;DHT22;38261;54.090;13.382;2022-12-18T06:28:55;-8.20;99.90
52321;DHT22;38261;54.090;13.382;2022-12-18T06:30:18;-8.20;99.90
52321;DHT22;38261;54.090;13.382;2022-12-18T06:31:40;-8.20;99.90
52321;DHT22;38261;54.090;13.382;2022-12-18T06:33:02;-8.20;99.90
52321;DHT22;38261;54.090;13.382;2022-12-18T06:34:24;-8.20;99.90
52321;DHT22;38261;54.090;13.382;2022-12-18T06:35:47;-8.20;99.90
52321;DHT22;38261;54.090;13.382;2022-12-18T06:37:09;-8.20;99.90
52321;DHT22;38261;54.090;13.382;2022-12-18T06:38:32;-8.20;99.90
52321;DHT22;38261;54.090;13.382;2022-12-18T06:39:55;-8.20;99.90
52321;DHT22;38261;54.090;13.382;2022-12-18T06:41:20;-8.20;99.90
52321;DHT22;38261;54.090;13.382;2022-12-18T06:42:42;-8.20;99.90
52321;DHT22;38261;54.090;13.382;2022-12-18T06:44:04;-8.20;99.90
52321;DHT22;38261;54.090;13.382;2022-12-18T06:45:27;-8.20;99.90
52321;DHT22;38261;54.090;13.382;2022-12-18T06:46:50;-8.20;99.90
52321;DHT22;38261;54.090;13.382;2022-12-18T06:48:12;-8.20;99.90
52321;DHT22;38261;54.090;13.382;2022-12-18T06:49:34;-8.20;99.90
52321;DHT22;38261;54.090;13.382;2022-12-18T06:50:57;-8.20;99.90
52321;DHT22;38261;54.090;13.382;2022-12-18T06:52:19;-8.20;99.90
52321;DHT22;38261;54.090;13.382;2022-12-18T06:53:41;-8.20;99.90
52321;DHT22;38261;54.090;13.382;2022-12-18T06:55:04;-8.20;99.90
52321;DHT22;38261;54.090;13.382;2022-12-18T06:56:26;-8.20;99.90
52321;DHT22;38261;54.090;13.382;2022-12-18T06:57:48;-8.20;99.90
52321;DHT22;38261;54.090;13.382;2022-12-18T06:59:11;-8.20;99.90
52321;DHT22;38261;54.090;13.382;2022-12-18T07:00:34;-8.20;99.90
52321;DHT22;38261;54.090;13.382;2022-12-18T07:01:56;-8.20;99.90
52321;DHT22;38261;54.090;13.382;2022-12-18T07:03:18;-8.20;99.90
52321;DHT22;38261;54.090;13.382;2022-12-18T07:04:41;-8.20;99.90
52321;DHT22;38261;54.090;13.382;2022-12-18T07:06:03;-8.20;99.90
52321;DHT22;38261;54.090;13.382;2022-12-18T07:07:25;-8.20;99.90
52321;DHT22;38261;54.090;13.382;2022-12-18T07:08:48;-8.20;99.90
52321;DHT22;38261;54.090;13.382;2022-12-18T07:10:10;-8.20;99.90
52321;DHT22;38261;54.090;13.382;2022-12-18T07:11:33;-8.20;99.90
52321;DHT22;38261;54.090;13.382;2022-12-18T07:12:55;-8.20;99.90
52321;DHT22;38261;54.090;13.382;2022-12-18T07:14:17;-8.20;99.90
52321;DHT22;38261;54.090;13.382;2022-12-18T07:15:39;-8.20;99.90
52321;DHT22;38261;54.090;13.382;2022-12-18T07:17:01;-8.20;99.90
52321;DHT22;38261;54.090;13.382;2022-12-18T07:18:24;-8.20;99.90
52321;DHT22;38261;54.090;13.382;2022-12-18T07:19:46;-8.20;99.90
52321;DHT22;38261;54.090;13.382;2022-12-18T07:21:12;-8.20;99.90
52321;DHT22;38261;54.090;13.382;2022-12-18T07:22:34;-8.20;99.90
52321;DHT22;38261;54.090;13.382;2022-12-18T07:23:56;-8.20;99.90
52321;DHT22;38261;54.090;13.382;2022-12-18T07:25:18;-8.10;99.90
52321;DHT22;38261;54.090;13.382;2022-12-18T07:26:41;-8.00;99.90
52321;DHT22;38261;54.090;13.382;2022-12-18T07:28:03;-7.90;99.90
52321;DHT22;38261;54.090;13.382;2022-12-18T07:29:26;-7.80;99.90
52321;DHT22;38261;54.090;13.382;2022-12-18T07:30:48;-7.60;99.90
52321;DHT22;38261;54.090;13.382;2022-12-18T07:32:10;-7.60;99.90
52321;DHT22;38261;54.090;13.382;2022-12-18T07:33:34;-7.60;99.90
52321;DHT22;38261;54.090;13.382;2022-12-18T07:34:56;-7.60;99.90
52321;DHT22;38261;54.090;13.382;2022-12-18T07:36:19;-7.60;99.90
52321;DHT22;38261;54.090;13.382;2022-12-18T07:37:45;-7.70;99.90
52321;DHT22;38261;54.090;13.382;2022-12-18T07:39:07;-7.80;99.90
52321;DHT22;38261;54.090;13.382;2022-12-18T07:40:29;-7.80;99.90
52321;DHT22;38261;54.090;13.382;2022-12-18T07:41:51;-7.90;99.90
52321;DHT22;38261;54.090;13.382;2022-12-18T07:43:33;-7.90;99.90
52321;DHT22;38261;54.090;13.382;2022-12-18T07:44:55;-7.90;99.90
52321;DHT22;38261;54.090;13.382;2022-12-18T07:46:19;-7.90;99.90
52321;DHT22;38261;54.090;13.382;2022-12-18T07:47:41;-8.00;99.90
52321;DHT22;38261;54.090;13.382;2022-12-18T07:49:03;-8.00;99.90
52321;DHT22;38261;54.090;13.382;2022-12-18T07:50:25;-8.00;99.90
52321;DHT22;38261;54.090;13.382;2022-12-18T07:51:47;-8.00;99.90
52321;DHT22;38261;54.090;13.382;2022-12-18T07:53:10;-8.00;99.90
52321;DHT22;38261;54.090;13.382;2022-12-18T07:54:33;-8.00;99.90
52321;DHT22;38261;54.090;13.382;2022-12-18T07:55:56;-8.00;99.90
52321;DHT22;38261;54.090;13.382;2022-12-18T07:57:38;-8.00;99.90
52321;DHT22;38261;54.090;13.382;2022-12-18T07:59:20;-8.00;99.90
52321;DHT22;38261;54.090;13.382;2022-12-18T08:00:43;-7.90;99.90
52321;DHT22;38261;54.090;13.382;2022-12-18T08:02:05;-7.90;99.90
52321;DHT22;38261;54.090;13.382;2022-12-18T08:03:28;-7.90;99.90
52321;DHT22;38261;54.090;13.382;2022-12-18T08:04:50;-7.90;99.90
52321;DHT22;38261;54.090;13.382;2022-12-18T08:06:12;-7.90;99.90
52321;DHT22;38261;54.090;13.382;2022-12-18T08:07:34;-7.90;99.90
52321;DHT22;38261;54.090;13.382;2022-12-18T08:08:56;-7.90;99.90
52321;DHT22;38261;54.090;13.382;2022-12-18T08:10:19;-7.80;99.90
52321;DHT22;38261;54.090;13.382;2022-12-18T08:11:41;-7.80;99.90
52321;DHT22;38261;54.090;13.382;2022-12-18T08:13:03;-7.80;99.90
52321;DHT22;38261;54.090;13.382;2022-12-18T08:14:26;-7.80;99.90
52321;DHT22;38261;54.090;13.382;2022-12-18T08:16:03;-7.80;99.90
52321;DHT22;38261;54.090;13.382;2022-12-18T08:17:26;-7.80;99.90
52321;DHT22;38261;54.090;13.382;2022-12-18T08:18:48;-7.80;99.90
52321;DHT22;38261;54.090;13.382;2022-12-18T08:20:11;-7.80;99.90
52321;DHT22;38261;54.090;13.382;2022-12-18T08:21:35;-7.80;99.90
52321;DHT22;38261;54.090;13.382;2022-12-18T08:22:58;-7.70;99.90
52321;DHT22;38261;54.090;13.382;2022-12-18T08:24:20;-7.70;99.90
52321;DHT22;38261;54.090;13.382;2022-12-18T08:25:42;-7.70;99.90
52321;DHT22;38261;54.090;13.382;2022-12-18T08:27:05;-7.70;99.90
52321;DHT22;38261;54.090;13.382;2022-12-18T08:28:49;-7.60;99.90
52321;DHT22;38261;54.090;13.382;2022-12-18T08:30:12;-7.50;99.90
52321;DHT22;38261;54.090;13.382;2022-12-18T08:31:34;-7.50;99.90
52321;DHT22;38261;54.090;13.382;2022-12-18T08:32:56;-7.40;99.90
52321;DHT22;38261;54.090;13.382;2022-12-18T08:34:18;-7.40;99.90
52321;DHT22;38261;54.090;13.382;2022-12-18T08:35:41;-7.30;99.90
52321;DHT22;38261;54.090;13.382;2022-12-18T08:37:07;-7.20;99.90
52321;DHT22;38261;54.090;13.382;2022-12-18T08:38:29;-7.20;99.90
52321;DHT22;38261;54.090;13.382;2022-12-18T08:39:51;-7.10;99.90
52321;DHT22;38261;54.090;13.382;2022-12-18T08:41:14;-7.10;99.90
52321;DHT22;38261;54.090;13.382;2022-12-18T08:42:37;-7.10;99.90
52321;DHT22;38261;54.090;13.382;2022-12-18T08:44:18;-7.00;99.90
52321;DHT22;38261;54.090;13.382;2022-12-18T08:45:58;-7.00;99.90
52321;DHT22;38261;54.090;13.382;2022-12-18T08:47:21;-6.90;99.90
52321;DHT22;38261;54.090;13.382;2022-12-18T08:48:43;-6.90;99.90
52321;DHT22;38261;54.090;13.382;2022-12-18T08:50:06;-6.90;99.90
52321;DHT22;38261;54.090;13.382;2022-12-18T08:51:28;-6.80;99.90
52321;DHT22;38261;54.090;13.382;2022-12-18T08:52:50;-6.80;99.90
52321;DHT22;38261;54.090;13.382;2022-12-18T08:54:12;-6.70;99.90
52321;DHT22;38261;54.090;13.382;2022-12-18T08:55:35;-6.60;99.90
52321;DHT22;38261;54.090;13.382;2022-12-18T08:56:57;-6.50;99.90
52321;DHT22;38261;54.090;13.382;2022-12-18T08:58:19;-6.50;99.90
52321;DHT22;38261;54.090;13.382;2022-12-18T08:59:42;-6.40;99.90
52321;DHT22;38261;54.090;13.382;2022-12-18T09:01:06;-6.30;99.90
52321;DHT22;38261;54.090;13.382;2022-12-18T09:02:28;-6.30;99.90
52321;DHT22;38261;54.090;13.382;2022-12-18T09:03:51;-6.20;99.90
52321;DHT22;38261;54.090;13.382;2022-12-18T09:05:13;-6.20;99.90
52321;DHT22;38261;54.090;13.382;2022-12-18T09:06:35;-6.10;99.90
52321;DHT22;38261;54.090;13.382;2022-12-18T09:07:58;-6.10;99.90
52321;DHT22;38261;54.090;13.382;2022-12-18T09:09:20;-6.10;99.90
52321;DHT22;38261;54.090;13.382;2022-12-18T09:10:46;-6.10;99.90
52321;DHT22;38261;54.090;13.382;2022-12-18T09:12:09;-6.00;99.90
52321;DHT22;38261;54.090;13.382;2022-12-18T09:13:31;-6.00;99.90
52321;DHT22;38261;54.090;13.382;2022-12-18T09:14:53;-5.90;99.90
52321;DHT22;38261;54.090;13.382;2022-12-18T09:16:15;-5.90;99.90
52321;DHT22;38261;54.090;13.382;2022-12-18T09:17:38;-5.90;99.90
52321;DHT22;38261;54.090;13.382;2022-12-18T09:19:01;-5.90;99.90